METAR Data
IDs: Format: Raw Decoded Include TAF

Data at: 1314 UTC 16 Oct 2018

PPIT 161256Z AUTO 06012KT 10SM SCT060 BKN090 OVC110 04/04 A2905 RMK AO2 SLP838 T00440044 TSNO
PPIT 161156Z AUTO 06014KT 10SM FEW070 04/04 A2906 RMK AO2 SLP839 60000 70019 T00440039 10056 20039 55002 TSNO
PPIT 161056Z AUTO 06013KT 10SM OVC070 04/04 A2905 RMK AO2 SLP838 T00440044 TSNO
PPIT 160856Z AUTO 07015KT 10SM CLR 04/04 A2906 RMK AO2 SLP841 60000 T00440039 400780044 56003 TSNO
PPIT 160756Z AUTO 06012KT 10SM SCT070 SCT085 04/04 A2906 RMK AO2 SLP841 T00440039 TSNO
PPIT 160656Z AUTO 06016KT 10SM SCT060 OVC075 05/05 A2907 RMK AO2 RAE02 SLP844 P0000 T00500050 TSNO
PPIT 160556Z AUTO 06015KT 10SM -RA BKN055 OVC110 06/05 A2907 RMK AO2 SLP845 P0003 60003 T00560050 10078 20050 58006 TSNO
PPIT 160456Z AUTO 06014KT 10SM -RA BKN070 OVC080 05/05 A2908 RMK AO2 RAB31 SLP847 P0000 T00500050 TSNO
PPIT 160356Z AUTO 06017G22KT 10SM BKN095 06/05 A2908 RMK AO2 SLP849 T00560050 TSNO
PPIT 160256Z AUTO 05015KT 10SM CLR 06/06 A2909 RMK AO2 SLP850 T00610056 56018 TSNO
PPIT 160156Z AUTO 06017G21KT 10SM FEW085 07/06 A2910 RMK AO2 SLP856 T00670056 TSNO
PPIT 160056Z AUTO 07019G23KT 10SM FEW060 07/06 A2912 RMK AO2 PK WND 07028/0002 SLP861 T00720056 TSNO
PPIT 152356Z AUTO 07018G23KT 10SM BKN065 OVC100 07/06 A2914 RMK AO2 PK WND 06026/2335 SLP868 60002 T00720056 10072 20056 58020 TSNO
PPIT 152156Z AUTO 06017G25KT 10SM FEW060 OVC090 07/06 A2919 RMK AO2 RAE54 SLP883 P0000 T00670056 TSNO
PPIT 152056Z AUTO 07020KT 10SM -RA OVC065 07/05 A2920 RMK AO2 PK WND 07026/2027 RAE11B29 SLP888 P0000 60002 T00670050 58010 TSNO
PPIT 151856Z AUTO 06017KT 10SM FEW060 OVC100 06/04 A2922 RMK AO2 PK WND 07028/1807 SLP895 T00610044 TSNO
PPIT 151756Z AUTO 07022G27KT 10SM OVC065 06/04 A2923 RMK AO2 PK WND 07030/1733 SLP899 60014 T00560039 10061 20050 56013 TSNO
PPIT 151656Z AUTO 06021G27KT 10SM FEW055 BKN075 BKN090 06/04 A2923 RMK AO2 PK WND 06029/1613 RAE46 SLP900 P0002 T00560039 TSNO
PPIT 151556Z AUTO 06021G29KT 10SM -RA OVC050 06/04 A2925 RMK AO2 PK WND 06029/1551 SLP906 P0004 T00560044 TSNO
PPIT 151456Z AUTO 06019KT 10SM -RA OVC043 06/04 A2927 RMK AO2 SLP912 P0003 60008 T00560044 56024 TSNO
PPIT 151356Z AUTO 05016G21KT 10SM -RA FEW047 BKN055 OVC075 06/04 A2929 RMK AO2 SLP918 P0002 T00560039 TSNO
PPIT 151256Z AUTO 06020KT 10SM -RA OVC049 06/04 A2932 RMK AO2 SLP928 P0003 T00560039 TSNO
PPIT 151156Z AUTO 06021G26KT 10SM -RA SCT065 BKN080 OVC100 06/03 A2934 RMK AO2 PK WND 06026/1151 SLP935 P0001 60001 70001 T00610033 10067 20061 58019 TSNO
PPIT 151056Z AUTO 07019G27KT 10SM -RA FEW050 SCT065 OVC090 06/03 A2936 RMK AO2 PK WND 06027/1054 RAB04 SLP944 P0000 T00610033 TSNO
PPIT 150856Z AUTO 07020G27KT 10SM BKN100 07/03 A2940 RMK AO2 PK WND 06027/0853 SLP955 T00670028 400940044 58016 TSNO
PPIT 150756Z AUTO 06020KT 10SM SCT120 07/03 A2942 RMK AO2 PK WND 06026/0724 SLP963 T00670033 TSNO
PPIT 150656Z AUTO 07020KT 10SM BKN120 07/04 A2944 RMK AO2 SLP969 T00670039 TSNO
PPIT 150556Z AUTO 07018KT 10SM SCT110 07/04 A2944 RMK AO2 SLP971 T00670044 10094 20067 58010 TSNO
PPIT 150456Z AUTO 06014KT 10SM CLR 07/04 A2945 RMK AO2 SLP974 T00670044 TSNO
PPIT 150256Z AUTO 05012KT 10SM SCT100 08/05 A2947 RMK AO2 SLP981 T00780050 58019 TSNO
PPIT 150156Z AUTO 07012KT 10SM OVC100 09/05 A2950 RMK AO2 SLP989 T00940050 TSNO